createdAt,value
2023-01-05T00:00:08.049Z,5.10
2023-01-05T00:05:38.484Z,5.00
2023-01-05T00:11:02.926Z,4.50
2023-01-05T00:16:32.625Z,4.80
2023-01-05T00:21:58.029Z,5.10
2023-01-05T00:27:03.783Z,5.10
2023-01-05T00:32:09.858Z,4.80
2023-01-05T00:37:15.994Z,4.40
2023-01-05T00:42:22.365Z,5.10
2023-01-05T00:47:28.214Z,4.50
2023-01-05T00:52:34.604Z,4.60
2023-01-05T00:57:42.563Z,4.60
2023-01-05T01:02:53.071Z,4.40
2023-01-05T01:07:59.503Z,4.40
2023-01-05T01:13:05.345Z,4.90
2023-01-05T01:18:11.426Z,4.30
2023-01-05T01:23:17.426Z,4.10
2023-01-05T01:28:23.238Z,3.80
2023-01-05T01:33:29.442Z,4.10
2023-01-05T01:38:36.016Z,4.20
2023-01-05T01:43:50.121Z,3.00
2023-01-05T01:49:01.659Z,2.60
2023-01-05T01:54:10.324Z,3.80
2023-01-05T01:59:17.508Z,3.10
2023-01-05T02:04:24.608Z,2.60
2023-01-05T02:09:31.650Z,2.30
2023-01-05T02:14:47.367Z,2.60
2023-01-05T02:20:37.070Z,3.50
2023-01-05T02:26:15.767Z,3.10
2023-01-05T02:31:25.170Z,4.40
2023-01-05T02:36:39.008Z,3.60
2023-01-05T02:41:48.607Z,3.60
2023-01-05T02:47:04.258Z,3.60
2023-01-05T02:52:12.227Z,3.20
2023-01-05T02:57:42.997Z,3.20
2023-01-05T03:02:53.254Z,3.20
2023-01-05T03:08:09.227Z,3.00
2023-01-05T03:13:38.026Z,5.70
2023-01-05T03:19:05.319Z,3.20
2023-01-05T03:24:30.605Z,2.60
2023-01-05T03:29:55.291Z,2.10
2023-01-05T03:35:24.167Z,2.70
2023-01-05T03:40:35.359Z,2.30
2023-01-05T03:45:44.622Z,2.70
2023-01-05T03:50:55.621Z,2.10
2023-01-05T03:56:02.347Z,2.40
2023-01-05T04:01:08.968Z,2.30
2023-01-05T04:06:17.641Z,2.70
2023-01-05T04:11:25.454Z,2.50
2023-01-05T04:21:43.033Z,1.70
2023-01-05T04:26:49.843Z,2.10
2023-01-05T04:31:56.919Z,2.70
2023-01-05T04:37:05.100Z,2.50
2023-01-05T04:42:11.927Z,2.00
2023-01-05T04:47:19.424Z,1.80
2023-01-05T04:52:26.271Z,2.30
2023-01-05T04:57:32.384Z,1.60
2023-01-05T05:02:38.702Z,1.40
2023-01-05T05:07:48.652Z,1.40
2023-01-05T05:12:54.864Z,1.40
2023-01-05T05:18:07.071Z,1.20
2023-01-05T05:23:15.247Z,1.30
2023-01-05T05:28:23.191Z,1.50
2023-01-05T05:33:29.191Z,2.60
2023-01-05T05:38:35.057Z,2.30
2023-01-05T05:43:41.061Z,2.60
2023-01-05T05:48:46.857Z,2.80
2023-01-05T05:53:52.696Z,2.20
2023-01-05T05:59:01.548Z,1.80
2023-01-05T06:04:07.911Z,2.10
2023-01-05T06:09:13.752Z,2.20
2023-01-05T06:14:19.864Z,1.70
2023-01-05T06:19:25.961Z,2.20
2023-01-05T06:24:31.632Z,2.00
2023-01-05T06:29:37.454Z,2.00
2023-01-05T06:34:43.155Z,1.80
2023-01-05T06:39:49.078Z,2.80
2023-01-05T06:44:54.850Z,2.10
2023-01-05T06:50:00.652Z,1.70
2023-01-05T06:55:07.671Z,1.90
2023-01-05T07:00:15.057Z,2.30
2023-01-05T07:05:23.162Z,2.40
2023-01-05T07:10:31.515Z,1.80
2023-01-05T07:15:37.431Z,2.80
2023-01-05T07:20:43.092Z,3.00
2023-01-05T07:25:48.849Z,2.70
2023-01-05T07:30:54.488Z,3.50
2023-01-05T07:36:04.169Z,4.10
2023-01-05T07:41:09.855Z,4.10
2023-01-05T07:46:15.928Z,3.30
2023-01-05T07:51:22.527Z,5.40
2023-01-05T07:56:28.590Z,3.30
2023-01-05T08:01:34.477Z,3.70
2023-01-05T08:06:40.331Z,3.00
2023-01-05T08:11:46.082Z,2.90
2023-01-05T08:16:52.355Z,3.60
2023-01-05T08:21:57.980Z,3.90
2023-01-05T08:27:04.271Z,5.60
2023-01-05T08:32:10.184Z,4.90
2023-01-05T08:37:15.880Z,3.60
2023-01-05T08:42:21.544Z,4.40
2023-01-05T08:47:28.629Z,3.30
2023-01-05T08:52:34.498Z,2.70
2023-01-05T08:57:41.201Z,2.70
2023-01-05T09:02:47.002Z,2.30
2023-01-05T09:07:53.326Z,2.00
2023-01-05T09:12:58.999Z,1.40
2023-01-05T09:18:05.058Z,1.50
2023-01-05T09:23:11.036Z,1.30
2023-01-05T09:28:16.831Z,1.30
2023-01-05T09:33:22.708Z,1.30
2023-01-05T09:38:29.769Z,1.50
2023-01-05T09:43:39.520Z,1.30
2023-01-05T09:48:50.443Z,1.50
2023-01-05T09:53:57.615Z,1.90
2023-01-05T09:59:12.232Z,1.50
2023-01-05T10:04:28.422Z,1.90
2023-01-05T10:09:39.451Z,2.00
2023-01-05T10:14:48.173Z,1.90
2023-01-05T10:19:53.903Z,1.70
2023-01-05T10:25:06.525Z,1.80
2023-01-05T10:30:22.000Z,1.90
2023-01-05T10:36:00.984Z,1.80
2023-01-05T10:41:17.908Z,1.90
2023-01-05T10:46:38.331Z,2.20
2023-01-05T10:51:56.123Z,2.30
2023-01-05T10:57:35.701Z,2.10
2023-01-05T11:02:50.529Z,2.60
2023-01-05T11:07:59.339Z,2.40
2023-01-05T11:13:16.984Z,2.80
2023-01-05T11:18:47.936Z,3.40
2023-01-05T11:23:56.100Z,2.90
2023-01-05T11:29:13.587Z,2.90
2023-01-05T11:34:33.349Z,3.70
2023-01-05T11:39:47.659Z,3.20
2023-01-05T11:44:55.806Z,3.50
2023-01-05T11:50:14.914Z,4.00
2023-01-05T11:55:40.049Z,3.00
2023-01-05T12:01:02.364Z,3.70
2023-01-05T12:06:28.204Z,4.10
2023-01-05T12:11:44.043Z,3.00
2023-01-05T12:16:54.067Z,3.70
2023-01-05T12:22:28.590Z,3.20
2023-01-05T12:27:51.366Z,2.50
2023-01-05T12:38:48.559Z,2.20
2023-01-05T12:44:09.082Z,2.00
2023-01-05T12:49:19.381Z,1.80
2023-01-05T12:54:38.097Z,2.00
2023-01-05T12:59:53.066Z,2.40
2023-01-05T13:05:04.751Z,1.90
2023-01-05T13:10:21.653Z,1.90
2023-01-05T13:15:37.661Z,1.90
2023-01-05T13:20:51.153Z,2.30
2023-01-05T13:26:01.497Z,1.90
2023-01-05T13:31:34.285Z,1.90
2023-01-05T13:37:01.464Z,2.20
2023-01-05T13:42:21.403Z,1.70
2023-01-05T13:48:04.249Z,1.40
2023-01-05T13:53:17.818Z,1.70
2023-01-05T14:09:05.971Z,1.50
2023-01-05T14:14:27.481Z,1.90
2023-01-05T14:19:52.283Z,1.90
2023-01-05T14:24:58.311Z,2.50
2023-01-05T14:30:04.902Z,2.60
2023-01-05T14:35:23.321Z,2.90
2023-01-05T14:40:39.305Z,2.10
2023-01-05T14:46:00.529Z,1.80
2023-01-05T14:51:26.332Z,2.30
2023-01-05T14:56:34.837Z,2.50
2023-01-05T15:01:49.008Z,2.50
2023-01-05T15:07:15.152Z,3.10
2023-01-05T15:12:44.419Z,2.90
2023-01-05T15:18:26.732Z,2.70
2023-01-05T15:24:08.072Z,2.40
2023-01-05T15:29:39.747Z,2.30
2023-01-05T15:34:52.307Z,1.90
2023-01-05T15:40:04.084Z,2.30
2023-01-05T15:45:18.110Z,2.60
2023-01-05T15:50:27.715Z,2.30
2023-01-05T15:55:33.994Z,2.90
2023-01-05T16:00:39.893Z,2.10
2023-01-05T16:05:48.299Z,1.70
2023-01-05T16:10:57.293Z,2.00
2023-01-05T16:16:11.422Z,1.50
2023-01-05T16:21:25.124Z,1.80
2023-01-05T16:26:31.724Z,2.30
2023-01-05T16:31:39.665Z,2.60
2023-01-05T16:42:40.532Z,2.30
2023-01-05T16:47:46.735Z,2.30
2023-01-05T16:52:57.964Z,1.90
2023-01-05T16:58:05.946Z,2.00
2023-01-05T17:03:32.514Z,1.50
2023-01-05T17:08:38.941Z,7.20
2023-01-05T17:13:48.183Z,2.00
2023-01-05T17:18:54.293Z,4.70
2023-01-05T17:24:01.497Z,5.00
2023-01-05T17:29:08.241Z,1.70
2023-01-05T17:34:14.233Z,1.90
2023-01-05T17:39:21.495Z,2.60
2023-01-05T17:44:27.282Z,1.90
2023-01-05T17:49:32.942Z,2.00
2023-01-05T17:54:41.103Z,3.60
2023-01-05T17:59:46.947Z,2.20
2023-01-05T18:04:52.851Z,2.80
2023-01-05T18:09:59.767Z,2.60
2023-01-05T18:15:07.665Z,2.60
2023-01-05T18:20:18.925Z,2.50
2023-01-05T18:25:28.601Z,2.80
2023-01-05T18:30:36.025Z,2.40
2023-01-05T18:35:44.318Z,2.30
2023-01-05T18:40:50.939Z,1.90
2023-01-05T18:45:58.394Z,2.00
2023-01-05T18:51:08.254Z,2.50
2023-01-05T18:56:15.722Z,2.00
2023-01-05T19:01:23.792Z,1.80
2023-01-05T19:06:30.168Z,1.90
2023-01-05T19:11:37.443Z,1.80
2023-01-05T19:16:43.629Z,1.90
2023-01-05T19:21:52.363Z,2.10
2023-01-05T19:26:58.584Z,1.90
2023-01-05T19:32:04.877Z,2.80
2023-01-05T19:37:10.651Z,2.60
2023-01-05T19:42:16.423Z,2.30
2023-01-05T19:47:22.336Z,2.40
2023-01-05T19:52:32.824Z,2.10
2023-01-05T19:57:39.104Z,2.00
2023-01-05T20:02:45.003Z,2.10
2023-01-05T20:07:51.479Z,2.20
2023-01-05T20:12:57.396Z,2.40
2023-01-05T20:18:07.633Z,2.50
2023-01-05T20:23:13.846Z,2.60
2023-01-05T20:28:21.771Z,2.60
2023-01-05T20:33:31.051Z,2.60
2023-01-05T20:38:38.772Z,2.50
2023-01-05T20:43:46.926Z,1.90
2023-01-05T20:48:54.215Z,2.00
2023-01-05T20:54:02.702Z,2.30
2023-01-05T20:59:14.349Z,1.90
2023-01-05T21:04:21.506Z,2.00
2023-01-05T21:09:30.934Z,2.40
2023-01-05T21:14:38.195Z,2.20
2023-01-05T21:19:44.092Z,2.20
2023-01-05T21:24:49.839Z,2.20
2023-01-05T21:29:55.917Z,2.90
2023-01-05T21:35:01.888Z,7.10
2023-01-05T21:40:10.245Z,4.40
2023-01-05T21:45:16.794Z,2.80
2023-01-05T21:50:41.529Z,3.10
2023-01-05T21:56:07.147Z,5.60
2023-01-05T22:01:13.300Z,4.60
2023-01-05T22:06:20.310Z,3.60
2023-01-05T22:11:26.171Z,3.20
2023-01-05T22:16:32.115Z,2.10
2023-01-05T22:21:38.323Z,1.70
2023-01-05T22:26:44.270Z,2.10
2023-01-05T22:31:53.054Z,2.30
2023-01-05T22:36:59.353Z,2.50
2023-01-05T22:42:05.354Z,2.80
2023-01-05T22:47:11.173Z,2.30
2023-01-05T22:52:17.059Z,2.30
2023-01-05T22:57:22.942Z,2.00
2023-01-05T23:02:28.979Z,2.50
2023-01-05T23:07:35.027Z,2.80
2023-01-05T23:12:40.734Z,3.00
2023-01-05T23:17:46.933Z,2.30
2023-01-05T23:22:52.801Z,2.60
2023-01-05T23:27:58.467Z,3.20
2023-01-05T23:33:04.263Z,3.50
2023-01-05T23:38:10.341Z,2.80
2023-01-05T23:43:19.267Z,2.80
2023-01-05T23:48:24.862Z,3.00
2023-01-05T23:53:30.582Z,3.80
2023-01-05T23:58:36.582Z,2.80
